createdAt,value
2018-01-19T00:01:45.712Z,0.40
2018-01-19T00:04:13.153Z,0.40
2018-01-19T00:06:40.585Z,0.40
2018-01-19T00:09:08.040Z,0.40
2018-01-19T00:11:35.476Z,0.30
2018-01-19T00:14:03.089Z,0.40
2018-01-19T00:16:30.549Z,0.30
2018-01-19T00:18:58.073Z,0.30
2018-01-19T00:21:25.532Z,0.40
2018-01-19T00:23:52.965Z,0.30
2018-01-19T00:26:20.718Z,0.20
2018-01-19T00:28:48.157Z,0.40
2018-01-19T00:31:15.591Z,0.30
2018-01-19T00:33:43.072Z,0.30
2018-01-19T00:36:10.512Z,0.30
2018-01-19T00:38:38.212Z,0.30
2018-01-19T00:41:05.649Z,0.20
2018-01-19T00:43:33.085Z,0.40
2018-01-19T00:46:00.545Z,0.20
2018-01-19T00:48:27.977Z,0.20
2018-01-19T00:50:55.543Z,0.20
2018-01-19T00:53:22.972Z,0.20
2018-01-19T00:55:50.409Z,0.40
2018-01-19T00:58:17.873Z,0.33
2018-01-19T01:00:45.306Z,0.30
2018-01-19T01:03:12.770Z,0.40
2018-01-19T01:05:40.228Z,0.30
2018-01-19T01:08:07.657Z,0.40
2018-01-19T01:10:35.116Z,0.30
2018-01-19T01:13:02.577Z,0.43
2018-01-19T01:15:30.257Z,0.30
2018-01-19T01:17:57.693Z,0.30
2018-01-19T01:20:25.171Z,0.33
2018-01-19T01:22:52.626Z,0.30
2018-01-19T01:25:20.089Z,0.30
2018-01-19T01:27:47.785Z,0.40
2018-01-19T01:30:15.225Z,0.30
2018-01-19T01:32:42.658Z,0.40
2018-01-19T01:35:10.119Z,0.30
2018-01-19T01:37:37.548Z,0.37
2018-01-19T01:40:05.334Z,0.40
2018-01-19T01:42:32.768Z,0.20
2018-01-19T01:45:00.205Z,0.30
2018-01-19T01:47:27.658Z,0.30
2018-01-19T01:49:55.120Z,0.53
2018-01-19T01:52:22.825Z,1.03
2018-01-19T01:54:50.257Z,0.90
2018-01-19T01:57:17.692Z,0.30
2018-01-19T01:59:45.145Z,0.30
2018-01-19T02:02:12.582Z,0.30
2018-01-19T02:04:40.209Z,0.30
2018-01-19T02:07:07.667Z,0.30
2018-01-19T02:09:35.096Z,0.33
2018-01-19T02:12:02.550Z,0.23
2018-01-19T02:14:29.980Z,0.30
2018-01-19T02:16:57.444Z,0.30
2018-01-19T02:19:24.880Z,0.30
2018-01-19T02:21:52.333Z,0.30
2018-01-19T02:24:19.797Z,0.30
2018-01-19T02:26:47.237Z,0.30
2018-01-19T02:29:14.727Z,0.60
2018-01-19T02:31:42.169Z,0.40
2018-01-19T02:34:09.608Z,0.30
2018-01-19T02:36:37.061Z,0.30
2018-01-19T02:39:04.494Z,0.50
2018-01-19T02:41:32.413Z,0.30
2018-01-19T02:43:59.858Z,0.30
2018-01-19T02:46:27.292Z,0.20
2018-01-19T02:48:54.749Z,0.20
2018-01-19T02:51:22.197Z,0.20
2018-01-19T02:53:49.921Z,0.20
2018-01-19T02:56:17.361Z,0.27
2018-01-19T02:58:44.792Z,0.30
2018-01-19T03:01:12.244Z,0.20
2018-01-19T03:03:39.679Z,0.83
2018-01-19T03:06:07.437Z,0.20
2018-01-19T03:08:34.880Z,0.20
2018-01-19T03:11:02.314Z,0.30
2018-01-19T03:13:29.781Z,0.30
2018-01-19T03:15:57.247Z,0.40
2018-01-19T03:18:25.124Z,0.40
2018-01-19T03:20:52.634Z,0.33
2018-01-19T03:23:20.090Z,0.50
2018-01-19T03:25:47.545Z,0.40
2018-01-19T03:28:14.977Z,0.30
2018-01-19T03:30:42.593Z,0.30
2018-01-19T03:33:10.026Z,0.30
2018-01-19T03:35:37.461Z,0.37
2018-01-19T03:38:04.917Z,0.30
2018-01-19T03:40:32.348Z,0.30
2018-01-19T03:42:59.832Z,0.30
2018-01-19T03:45:27.260Z,0.73
2018-01-19T03:47:54.693Z,0.50
2018-01-19T03:50:22.154Z,0.30
2018-01-19T03:52:49.644Z,0.40
2018-01-19T03:55:17.102Z,0.47
2018-01-19T03:57:44.535Z,0.30
2018-01-19T04:00:11.976Z,0.30
2018-01-19T04:02:39.425Z,0.40
2018-01-19T04:05:06.853Z,0.30
2018-01-19T04:07:34.568Z,0.47
2018-01-19T04:10:02.009Z,0.70
2018-01-19T04:12:29.449Z,0.30
2018-01-19T04:14:56.914Z,0.60
2018-01-19T04:17:24.352Z,0.50
2018-01-19T04:19:52.159Z,0.37
2018-01-19T04:22:19.593Z,0.60
2018-01-19T04:24:47.036Z,0.60
2018-01-19T04:27:14.493Z,0.50
2018-01-19T04:29:41.938Z,0.43
2018-01-19T04:32:09.642Z,0.40
2018-01-19T04:34:37.085Z,0.50
2018-01-19T04:37:04.513Z,0.53
2018-01-19T04:39:31.969Z,0.57
2018-01-19T04:41:59.401Z,0.53
2018-01-19T04:44:26.874Z,0.60
2018-01-19T04:46:54.308Z,0.70
2018-01-19T04:49:21.773Z,0.60
2018-01-19T04:51:49.224Z,0.60
2018-01-19T04:54:16.677Z,0.50
2018-01-19T04:56:44.309Z,1.23
2018-01-19T04:59:11.750Z,0.90
2018-01-19T05:01:39.180Z,0.53
2018-01-19T05:04:06.649Z,0.40
2018-01-19T05:06:34.097Z,0.80
2018-01-19T05:09:01.694Z,0.70
2018-01-19T05:11:29.130Z,0.97
2018-01-19T05:13:56.770Z,1.00
2018-01-19T05:16:24.228Z,1.00
2018-01-19T05:18:51.661Z,0.97
2018-01-19T05:21:19.494Z,0.93
2018-01-19T05:23:46.920Z,1.00
2018-01-19T05:26:14.357Z,0.73
2018-01-19T05:28:41.813Z,0.97
2018-01-19T05:31:09.350Z,0.60
2018-01-19T05:33:36.828Z,0.90
2018-01-19T05:36:04.281Z,0.50
2018-01-19T05:38:31.720Z,0.90
2018-01-19T05:40:59.173Z,0.60
2018-01-19T05:43:26.605Z,0.97
2018-01-19T05:45:54.273Z,0.90
2018-01-19T05:48:21.705Z,0.50
2018-01-19T05:50:49.157Z,0.50
2018-01-19T05:53:16.634Z,0.97
2018-01-19T05:55:44.068Z,0.80
2018-01-19T05:58:11.850Z,0.80
2018-01-19T06:00:39.311Z,0.70
2018-01-19T06:03:06.769Z,0.63
2018-01-19T06:05:34.249Z,0.40
2018-01-19T06:08:01.689Z,0.97
2018-01-19T06:10:29.444Z,0.60
2018-01-19T06:12:56.894Z,1.00
2018-01-19T06:15:24.336Z,0.60
2018-01-19T06:17:51.796Z,0.60
2018-01-19T06:20:19.233Z,0.60
2018-01-19T06:22:46.929Z,0.50
2018-01-19T06:25:14.387Z,0.63
2018-01-19T06:27:41.831Z,0.70
2018-01-19T06:30:09.305Z,0.40
2018-01-19T06:32:36.737Z,0.50
2018-01-19T06:35:04.428Z,0.60
2018-01-19T06:37:31.869Z,0.60
2018-01-19T06:39:59.393Z,0.73
2018-01-19T06:42:27.074Z,0.40
2018-01-19T06:44:54.517Z,0.50
2018-01-19T06:47:22.132Z,0.50
2018-01-19T06:49:49.572Z,0.77
2018-01-19T06:52:17.009Z,0.60
2018-01-19T06:54:44.486Z,0.73
2018-01-19T06:57:11.939Z,0.40
2018-01-19T06:59:39.404Z,0.50
2018-01-19T07:02:06.847Z,0.67
2018-01-19T07:04:34.281Z,0.50
2018-01-19T07:07:01.737Z,0.50
2018-01-19T07:09:29.171Z,0.50
2018-01-19T07:11:56.792Z,0.70
2018-01-19T07:14:24.231Z,0.60
2018-01-19T07:16:51.660Z,0.50
2018-01-19T07:19:19.116Z,1.27
2018-01-19T07:21:46.564Z,1.30
2018-01-19T07:24:14.213Z,0.90
2018-01-19T07:26:41.657Z,0.97
2018-01-19T07:29:09.097Z,1.73
2018-01-19T07:31:36.564Z,1.50
2018-01-19T07:34:04.257Z,1.17
2018-01-19T07:36:32.017Z,1.00
2018-01-19T07:38:59.449Z,0.70
2018-01-19T07:41:26.882Z,0.70
2018-01-19T07:43:54.342Z,1.27
2018-01-19T07:46:21.799Z,1.50
2018-01-19T07:48:49.376Z,1.30
2018-01-19T07:51:16.833Z,0.67
2018-01-19T07:53:44.268Z,0.77
2018-01-19T07:56:11.726Z,0.67
2018-01-19T07:58:39.169Z,0.80
2018-01-19T08:01:07.031Z,0.60
2018-01-19T08:03:34.465Z,0.90
2018-01-19T08:06:01.904Z,1.10
2018-01-19T08:08:29.357Z,0.80
2018-01-19T08:10:56.807Z,0.80
2018-01-19T08:13:24.328Z,1.23
2018-01-19T08:15:51.776Z,1.67
2018-01-19T08:18:19.226Z,0.60
2018-01-19T08:20:46.683Z,1.27
2018-01-19T08:23:14.113Z,0.87
2018-01-19T08:25:41.898Z,0.57
2018-01-19T08:28:09.457Z,2.03
2018-01-19T08:30:36.961Z,1.63
2018-01-19T08:33:04.413Z,1.13
2018-01-19T08:35:31.853Z,1.50
2018-01-19T08:37:59.595Z,1.20
2018-01-19T08:40:27.025Z,1.70
2018-01-19T08:42:54.503Z,1.10
2018-01-19T08:45:21.964Z,2.07
2018-01-19T08:47:49.404Z,1.90
2018-01-19T08:50:17.078Z,1.27
2018-01-19T08:52:44.525Z,0.77
2018-01-19T08:55:11.972Z,0.80
2018-01-19T08:57:39.429Z,1.43
2018-01-19T09:00:06.861Z,0.63
2018-01-19T09:02:34.360Z,0.70
2018-01-19T09:05:02.654Z,0.53
2018-01-19T09:07:30.089Z,0.70
2018-01-19T09:09:57.545Z,0.50
2018-01-19T09:12:24.985Z,0.50
2018-01-19T09:14:52.621Z,0.43
2018-01-19T09:17:20.057Z,0.60
2018-01-19T09:19:47.501Z,0.50
2018-01-19T09:22:14.964Z,0.73
2018-01-19T09:24:42.400Z,1.17
2018-01-19T09:27:10.121Z,0.60
2018-01-19T09:29:37.564Z,0.40
2018-01-19T09:32:05.020Z,0.80
2018-01-19T09:34:32.492Z,0.60
2018-01-19T09:36:59.935Z,0.43
2018-01-19T09:39:27.638Z,1.00
2018-01-19T09:41:55.077Z,0.70
2018-01-19T09:44:22.516Z,0.60
2018-01-19T09:46:49.992Z,0.50
2018-01-19T09:49:17.428Z,0.40
2018-01-19T09:51:45.125Z,0.53
2018-01-19T09:54:12.557Z,0.47
2018-01-19T09:56:40.009Z,0.60
2018-01-19T09:59:07.929Z,0.73
2018-01-19T10:01:35.365Z,0.50
2018-01-19T10:04:03.441Z,0.50
2018-01-19T10:06:30.877Z,0.50
2018-01-19T10:08:58.336Z,1.63
2018-01-19T10:11:25.789Z,0.40
2018-01-19T10:13:53.237Z,0.67
2018-01-19T10:16:20.876Z,0.70
2018-01-19T10:18:48.456Z,0.40
2018-01-19T10:21:15.893Z,0.73
2018-01-19T10:23:43.360Z,0.60
2018-01-19T10:26:10.804Z,0.43
2018-01-19T10:28:38.508Z,0.40
2018-01-19T10:31:05.941Z,0.60
2018-01-19T10:33:33.436Z,0.60
2018-01-19T10:36:00.912Z,0.73
2018-01-19T10:38:28.348Z,0.60
2018-01-19T10:40:56.003Z,0.40
2018-01-19T10:43:23.432Z,0.63
2018-01-19T10:45:50.869Z,0.60
2018-01-19T10:48:18.328Z,0.50
2018-01-19T10:50:45.769Z,0.33
2018-01-19T10:53:13.337Z,0.40
2018-01-19T10:55:40.768Z,0.70
2018-01-19T10:58:08.305Z,1.53
2018-01-19T11:00:35.784Z,0.50
2018-01-19T11:03:03.236Z,0.40
2018-01-19T11:05:30.977Z,0.50
2018-01-19T11:07:58.404Z,0.40
2018-01-19T11:10:25.853Z,0.40
2018-01-19T11:12:53.309Z,0.77
2018-01-19T11:15:20.880Z,0.80
2018-01-19T11:17:48.587Z,0.40
2018-01-19T11:20:16.024Z,0.60
2018-01-19T11:22:43.457Z,0.70
2018-01-19T11:25:10.913Z,0.53
2018-01-19T11:27:38.349Z,0.70
2018-01-19T11:30:06.065Z,0.50
2018-01-19T11:32:33.501Z,0.70
2018-01-19T11:35:01.021Z,1.60
2018-01-19T11:37:28.478Z,0.60
2018-01-19T11:39:55.908Z,0.60
2018-01-19T11:42:23.392Z,0.53
2018-01-19T11:44:50.820Z,1.13
2018-01-19T11:47:18.273Z,0.80
2018-01-19T11:49:45.732Z,0.60
2018-01-19T11:52:13.164Z,0.83
2018-01-19T11:54:41.021Z,1.00
2018-01-19T11:57:08.453Z,2.07
2018-01-19T11:59:35.891Z,1.07
2018-01-19T12:02:03.350Z,0.60
2018-01-19T12:04:30.788Z,0.40
2018-01-19T12:06:58.409Z,0.50
2018-01-19T12:09:25.897Z,0.63
2018-01-19T12:11:53.330Z,0.60
2018-01-19T12:14:20.799Z,0.67
2018-01-19T12:16:48.237Z,0.63
2018-01-19T12:19:15.725Z,0.30
2018-01-19T12:21:43.173Z,0.60
2018-01-19T12:24:10.864Z,0.50
2018-01-19T12:26:38.324Z,0.90
2018-01-19T12:29:05.757Z,0.40
2018-01-19T12:31:33.224Z,0.73
2018-01-19T12:34:00.658Z,0.40
2018-01-19T12:36:28.092Z,0.50
2018-01-19T12:38:55.558Z,0.40
2018-01-19T12:41:22.993Z,0.73
2018-01-19T12:43:50.703Z,0.60
2018-01-19T12:46:18.136Z,1.07
2018-01-19T12:48:45.565Z,0.70
2018-01-19T12:51:13.041Z,0.60
2018-01-19T12:53:40.481Z,0.80
2018-01-19T12:56:08.068Z,0.60
2018-01-19T12:58:35.509Z,0.83
2018-01-19T13:01:02.988Z,1.40
2018-01-19T13:03:30.745Z,0.60
2018-01-19T13:05:58.185Z,0.57
2018-01-19T13:08:25.648Z,0.60
2018-01-19T13:10:53.082Z,0.50
2018-01-19T13:13:20.517Z,0.70
2018-01-19T13:15:47.976Z,0.60
2018-01-19T13:18:15.411Z,0.70
2018-01-19T13:20:43.026Z,0.77
2018-01-19T13:23:10.486Z,0.60
2018-01-19T13:25:37.920Z,0.67
2018-01-19T13:28:05.381Z,0.50
2018-01-19T13:30:32.832Z,0.60
2018-01-19T13:33:00.725Z,1.03
2018-01-19T13:35:28.174Z,0.50
2018-01-19T13:37:55.613Z,0.73
2018-01-19T13:40:23.069Z,0.60
2018-01-19T13:42:50.529Z,0.53
2018-01-19T13:45:18.041Z,1.23
2018-01-19T13:47:45.473Z,1.10
2018-01-19T13:50:12.904Z,0.80
2018-01-19T13:52:40.365Z,0.50
2018-01-19T13:55:07.803Z,0.67
2018-01-19T13:57:35.260Z,0.90
2018-01-19T14:00:02.764Z,0.90
2018-01-19T14:02:30.212Z,0.73
2018-01-19T14:04:57.676Z,0.60
2018-01-19T14:07:25.121Z,1.00
2018-01-19T14:09:52.594Z,1.10
2018-01-19T14:12:20.057Z,0.63
2018-01-19T14:14:47.492Z,0.63
2018-01-19T14:17:14.925Z,0.97
2018-01-19T14:19:42.381Z,0.60
2018-01-19T14:22:09.836Z,1.03
2018-01-19T14:24:37.296Z,0.70
2018-01-19T14:27:04.748Z,0.73
2018-01-19T14:29:32.181Z,0.83
2018-01-19T14:31:59.613Z,0.83
2018-01-19T14:34:27.083Z,0.70
2018-01-19T14:36:54.521Z,0.77
2018-01-19T14:39:21.989Z,1.23
2018-01-19T14:41:49.458Z,1.47
2018-01-19T14:44:16.942Z,1.10
2018-01-19T14:46:44.398Z,0.77
2018-01-19T14:49:12.078Z,0.70
2018-01-19T14:51:39.525Z,0.80
2018-01-19T14:54:06.994Z,2.47
2018-01-19T14:56:34.654Z,1.30
2018-01-19T14:59:02.088Z,3.30
2018-01-19T15:01:29.543Z,1.93
2018-01-19T15:03:57.320Z,1.40
2018-01-19T15:06:24.769Z,1.10
2018-01-19T15:08:52.228Z,0.80
2018-01-19T15:11:19.780Z,1.03
2018-01-19T15:13:47.385Z,0.73
2018-01-19T15:16:14.817Z,0.70
2018-01-19T15:18:42.316Z,0.47
2018-01-19T15:21:09.803Z,1.10
2018-01-19T15:23:37.276Z,0.60
2018-01-19T15:26:05.053Z,0.60
2018-01-19T15:28:32.541Z,1.23
2018-01-19T15:30:59.993Z,0.70
2018-01-19T15:33:27.453Z,0.90
2018-01-19T15:35:54.884Z,0.60
2018-01-19T15:38:22.324Z,0.70
2018-01-19T15:40:49.995Z,0.87
2018-01-19T15:43:17.462Z,0.90
2018-01-19T15:45:44.894Z,1.07
2018-01-19T15:48:12.377Z,1.60
2018-01-19T15:50:39.809Z,0.70
2018-01-19T15:53:07.259Z,0.90
2018-01-19T15:55:34.892Z,0.60
2018-01-19T15:58:02.405Z,0.50
2018-01-19T16:00:29.849Z,0.70
2018-01-19T16:02:57.341Z,0.60
2018-01-19T16:05:24.784Z,0.90
2018-01-19T16:07:52.539Z,0.50
2018-01-19T16:10:19.986Z,0.70
2018-01-19T16:12:47.418Z,0.70
2018-01-19T16:15:15.052Z,0.90
2018-01-19T16:17:42.499Z,0.80
2018-01-19T16:20:10.281Z,0.50
2018-01-19T16:22:37.744Z,0.80
2018-01-19T16:25:05.184Z,1.00
2018-01-19T16:27:32.652Z,0.70
2018-01-19T16:30:00.102Z,1.57
2018-01-19T16:32:28.019Z,0.67
2018-01-19T16:34:55.534Z,1.00
2018-01-19T16:37:22.964Z,1.00
2018-01-19T16:39:50.429Z,0.87
2018-01-19T16:42:17.861Z,1.00
2018-01-19T16:44:45.543Z,1.27
2018-01-19T16:47:12.969Z,1.43
2018-01-19T16:49:40.429Z,2.03
2018-01-19T16:52:07.893Z,0.80
2018-01-19T16:54:35.338Z,2.43
2018-01-19T16:57:02.941Z,1.90
2018-01-19T16:59:30.383Z,0.90
2018-01-19T17:01:57.817Z,1.10
2018-01-19T17:04:25.296Z,1.10
2018-01-19T17:06:52.755Z,1.00
2018-01-19T17:09:20.413Z,0.63
2018-01-19T17:11:47.870Z,0.80
2018-01-19T17:14:15.309Z,1.40
2018-01-19T17:16:42.787Z,1.10
2018-01-19T17:19:10.244Z,0.93
2018-01-19T17:21:37.961Z,1.37
2018-01-19T17:24:05.397Z,1.30
2018-01-19T17:26:32.828Z,1.20
2018-01-19T17:29:00.304Z,1.93
2018-01-19T17:31:27.849Z,1.10
2018-01-19T17:33:55.320Z,0.97
2018-01-19T17:36:22.754Z,2.10
2018-01-19T17:38:50.188Z,2.00
2018-01-19T17:41:17.645Z,2.00
2018-01-19T17:43:45.088Z,1.77
2018-01-19T17:46:12.748Z,1.43
2018-01-19T17:48:40.195Z,1.23
2018-01-19T17:51:07.673Z,1.17
2018-01-19T17:53:35.140Z,1.67
2018-01-19T17:56:02.596Z,1.67
2018-01-19T17:58:30.228Z,2.10
2018-01-19T18:00:57.658Z,2.37
2018-01-19T18:03:25.113Z,1.97
2018-01-19T18:05:52.581Z,1.90
2018-01-19T18:08:20.025Z,1.30
2018-01-19T18:10:47.654Z,1.80
2018-01-19T18:13:15.091Z,1.50
2018-01-19T18:15:42.528Z,2.00
2018-01-19T18:18:09.985Z,2.37
2018-01-19T18:20:37.433Z,2.07
2018-01-19T18:23:05.060Z,1.87
2018-01-19T18:25:32.509Z,1.30
2018-01-19T18:27:59.961Z,2.03
2018-01-19T18:30:27.459Z,2.57
2018-01-19T18:32:55.098Z,2.17
2018-01-19T18:35:22.911Z,2.30
2018-01-19T18:37:50.421Z,1.33
2018-01-19T18:40:18.001Z,2.47
2018-01-19T18:42:45.519Z,1.50
2018-01-19T18:45:13.145Z,1.60
2018-01-19T18:47:40.734Z,1.97
2018-01-19T18:50:08.173Z,1.13
2018-01-19T18:52:35.724Z,2.20
2018-01-19T18:55:03.209Z,1.77
2018-01-19T18:57:30.655Z,1.97
2018-01-19T18:59:58.373Z,7.57
2018-01-19T19:02:25.817Z,3.47
2018-01-19T19:04:53.258Z,2.70
2018-01-19T19:07:20.716Z,1.40
2018-01-19T19:09:48.165Z,1.47
2018-01-19T19:12:15.957Z,1.30
2018-01-19T19:14:43.396Z,1.17
2018-01-19T19:17:10.877Z,1.47
2018-01-19T19:19:38.365Z,1.13
2018-01-19T19:22:05.823Z,1.60
2018-01-19T19:24:33.399Z,1.50
2018-01-19T19:27:00.849Z,1.10
2018-01-19T19:29:28.291Z,0.90
2018-01-19T19:31:55.757Z,1.40
2018-01-19T19:34:24.146Z,1.73
2018-01-19T19:36:51.720Z,2.80
2018-01-19T19:39:19.173Z,2.07
2018-01-19T19:41:46.633Z,2.07
2018-01-19T19:44:14.113Z,3.07
2018-01-19T19:46:41.562Z,3.07
2018-01-19T19:49:09.130Z,3.13
2018-01-19T19:51:36.601Z,2.53
2018-01-19T19:54:04.553Z,2.47
2018-01-19T19:56:32.035Z,2.60
2018-01-19T19:58:59.485Z,3.03
2018-01-19T20:01:27.916Z,2.90
2018-01-19T20:03:55.359Z,2.00
2018-01-19T20:06:22.804Z,2.20
2018-01-19T20:08:50.273Z,2.60
2018-01-19T20:11:17.719Z,2.33
2018-01-19T20:13:45.549Z,2.80
2018-01-19T20:16:12.984Z,2.80
2018-01-19T20:18:40.450Z,2.60
2018-01-19T20:21:07.908Z,2.27
2018-01-19T20:23:35.354Z,2.07
2018-01-19T20:26:02.962Z,2.97
2018-01-19T20:28:30.415Z,3.30
2018-01-19T20:30:58.469Z,4.13
2018-01-19T20:33:25.934Z,4.20
2018-01-19T20:35:53.385Z,3.53
2018-01-19T20:38:21.849Z,5.07
2018-01-19T20:40:49.648Z,4.53
2018-01-19T20:43:17.087Z,3.77
2018-01-19T20:45:45.350Z,4.00
2018-01-19T20:48:12.793Z,3.63
2018-01-19T20:50:40.289Z,3.00
2018-01-19T20:53:07.747Z,3.97
2018-01-19T20:55:35.184Z,2.90
2018-01-19T20:58:02.643Z,3.07
2018-01-19T21:00:30.087Z,2.60
2018-01-19T21:02:57.743Z,2.27
2018-01-19T21:05:25.205Z,3.23
2018-01-19T21:07:52.693Z,2.77
2018-01-19T21:10:20.157Z,3.70
2018-01-19T21:12:47.608Z,2.87
2018-01-19T21:15:15.344Z,3.17
2018-01-19T21:17:42.790Z,3.33
2018-01-19T21:20:10.226Z,3.00
2018-01-19T21:22:37.696Z,3.00
2018-01-19T21:25:06.073Z,2.97
2018-01-19T21:27:33.845Z,2.43
2018-01-19T21:30:01.280Z,3.57
2018-01-19T21:32:28.720Z,2.63
2018-01-19T21:34:56.185Z,2.33
2018-01-19T21:37:23.675Z,2.50
2018-01-19T21:39:51.333Z,2.80
2018-01-19T21:42:18.771Z,2.40
2018-01-19T21:44:46.205Z,2.27
2018-01-19T21:47:13.759Z,2.53
2018-01-19T21:49:41.221Z,2.77
2018-01-19T21:52:08.826Z,2.77
2018-01-19T21:54:36.265Z,2.83
2018-01-19T21:57:03.700Z,3.17
2018-01-19T21:59:31.173Z,2.90
2018-01-19T22:01:58.612Z,2.57
2018-01-19T22:04:26.186Z,2.10
2018-01-19T22:06:53.641Z,1.57
2018-01-19T22:09:21.111Z,2.17
2018-01-19T22:11:48.588Z,2.07
2018-01-19T22:14:16.029Z,2.40
2018-01-19T22:16:43.581Z,2.40
2018-01-19T22:19:11.021Z,2.60
2018-01-19T22:21:38.467Z,3.07
2018-01-19T22:24:05.984Z,2.90
2018-01-19T22:26:33.461Z,3.50
2018-01-19T22:29:00.968Z,3.47
2018-01-19T22:31:28.413Z,3.60
2018-01-19T22:33:55.897Z,4.23
2018-01-19T22:36:23.358Z,5.20
2018-01-19T22:38:50.804Z,5.33
2018-01-19T22:41:18.669Z,6.77
2018-01-19T22:43:46.126Z,7.10
2018-01-19T22:46:13.721Z,5.93
2018-01-19T22:48:41.192Z,5.40
2018-01-19T22:51:08.638Z,4.60
2018-01-19T22:53:36.643Z,3.60
2018-01-19T22:56:04.080Z,6.07
2018-01-19T22:58:31.554Z,3.37
2018-01-19T23:00:59.095Z,5.20
2018-01-19T23:03:26.547Z,4.63
2018-01-19T23:05:54.463Z,5.50
2018-01-19T23:08:21.901Z,4.47
2018-01-19T23:10:49.348Z,4.43
2018-01-19T23:13:16.804Z,4.07
2018-01-19T23:15:44.274Z,3.30
2018-01-19T23:18:11.769Z,3.80
2018-01-19T23:20:39.209Z,4.03
2018-01-19T23:23:06.892Z,4.10
2018-01-19T23:25:34.348Z,4.30
2018-01-19T23:28:01.781Z,5.17
2018-01-19T23:30:29.256Z,4.87
2018-01-19T23:32:56.692Z,5.03
2018-01-19T23:35:24.134Z,3.50
2018-01-19T23:37:51.593Z,5.17
2018-01-19T23:40:19.052Z,4.43
2018-01-19T23:42:46.521Z,4.30
2018-01-19T23:45:13.957Z,4.27
2018-01-19T23:47:41.409Z,4.03
2018-01-19T23:50:08.883Z,3.53
2018-01-19T23:52:36.330Z,4.30
2018-01-19T23:55:04.002Z,3.93
2018-01-19T23:57:31.464Z,5.47
2018-01-19T23:59:58.900Z,4.40
